createdAt,value
2019-02-16T00:00:56.915Z,102690.47
2019-02-16T00:06:02.155Z,102691.44
2019-02-16T00:11:07.523Z,102693.78
2019-02-16T00:16:12.937Z,102689.82
2019-02-16T00:21:18.336Z,102690.63
2019-02-16T00:26:23.698Z,102690.23
2019-02-16T00:31:29.029Z,102678.97
2019-02-16T00:36:34.355Z,102686.62
2019-02-16T00:41:39.497Z,102677.70
2019-02-16T00:46:44.580Z,102672.00
2019-02-16T00:51:50.072Z,102654.17
2019-02-16T00:56:55.432Z,102657.22
2019-02-16T01:02:00.489Z,102649.50
2019-02-16T01:07:05.948Z,102634.07
2019-02-16T01:12:11.408Z,102629.34
2019-02-16T01:17:16.845Z,102619.31
2019-02-16T01:22:22.295Z,102612.95
2019-02-16T01:27:27.478Z,102605.25
2019-02-16T01:32:32.746Z,102602.34
2019-02-16T01:37:38.210Z,102607.25
2019-02-16T01:42:43.474Z,102597.55
2019-02-16T01:47:48.731Z,102593.84
2019-02-16T01:52:54.072Z,102604.69
2019-02-16T01:57:59.435Z,102590.34
2019-02-16T02:03:04.899Z,102580.19
2019-02-16T02:08:10.348Z,102583.56
2019-02-16T02:13:15.712Z,102577.19
2019-02-16T02:18:21.076Z,102575.45
2019-02-16T02:23:26.325Z,102575.17
2019-02-16T02:28:31.580Z,102578.31
2019-02-16T02:33:36.740Z,102553.83
2019-02-16T02:38:42.003Z,102549.31
2019-02-16T02:43:47.356Z,102537.36
2019-02-16T02:48:52.812Z,102532.86
2019-02-16T02:53:58.382Z,102534.77
2019-02-16T02:59:03.740Z,102531.81
2019-02-16T03:04:09.101Z,102524.47
2019-02-16T03:09:14.549Z,102523.19
2019-02-16T03:14:19.817Z,102526.17
2019-02-16T03:19:25.065Z,102521.02
2019-02-16T03:24:30.287Z,102522.31
2019-02-16T03:29:44.543Z,102523.95
2019-02-16T03:35:10.733Z,102517.64
2019-02-16T03:40:15.990Z,102506.84
2019-02-16T03:45:21.185Z,102513.16
2019-02-16T03:50:26.401Z,102506.06
2019-02-16T03:55:31.951Z,102515.73
2019-02-16T04:00:37.236Z,102502.85
2019-02-16T04:05:42.473Z,102508.00
2019-02-16T04:10:47.646Z,102499.36
2019-02-16T04:15:52.889Z,102488.79
2019-02-16T04:20:57.941Z,102486.73
2019-02-16T04:26:04.843Z,102477.20
2019-02-16T04:31:10.203Z,102478.34
2019-02-16T04:36:15.428Z,102472.31
2019-02-16T04:41:21.040Z,102470.37
2019-02-16T04:46:26.382Z,102460.76
2019-02-16T04:51:31.743Z,102464.97
2019-02-16T04:56:37.101Z,102458.81
2019-02-16T05:01:42.659Z,102454.09
2019-02-16T05:06:48.244Z,102445.22
2019-02-16T05:11:53.568Z,102449.19
2019-02-16T05:16:59.337Z,102440.91
2019-02-16T05:22:04.607Z,102440.27
2019-02-16T05:27:09.861Z,102430.02
2019-02-16T05:32:15.221Z,102417.14
2019-02-16T05:37:20.428Z,102423.05
2019-02-16T05:42:25.657Z,102425.17
2019-02-16T05:47:30.886Z,102424.05
2019-02-16T05:52:36.140Z,102435.41
2019-02-16T05:57:41.400Z,102444.67
2019-02-16T06:02:46.566Z,102442.38
2019-02-16T06:07:51.821Z,102438.39
2019-02-16T06:12:57.021Z,102433.74
2019-02-16T06:18:02.414Z,102429.89
2019-02-16T06:23:07.894Z,102440.05
2019-02-16T06:28:13.245Z,102427.19
2019-02-16T06:33:18.518Z,102422.94
2019-02-16T06:38:23.670Z,102425.12
2019-02-16T06:43:28.748Z,102416.30
2019-02-16T06:48:34.245Z,102418.88
2019-02-16T06:53:39.520Z,102411.20
2019-02-16T06:58:44.986Z,102409.66
2019-02-16T07:03:50.706Z,102410.73
2019-02-16T07:08:56.006Z,102415.56
2019-02-16T07:14:01.249Z,102417.88
2019-02-16T07:19:08.266Z,102411.97
2019-02-16T07:24:13.622Z,102412.98
2019-02-16T07:29:19.092Z,102410.89
2019-02-16T07:34:24.446Z,102405.72
2019-02-16T07:39:29.806Z,102403.36
2019-02-16T07:44:42.941Z,102401.15
2019-02-16T07:50:05.698Z,102399.97
2019-02-16T07:55:12.558Z,102400.16
2019-02-16T08:00:19.572Z,102392.91
2019-02-16T08:05:32.516Z,102385.89
2019-02-16T08:10:39.500Z,102378.08
2019-02-16T08:15:49.115Z,102376.59
2019-02-16T08:20:58.891Z,102363.27
2019-02-16T08:26:08.816Z,102348.86
2019-02-16T08:31:15.926Z,102333.26
2019-02-16T08:36:23.125Z,102315.85
2019-02-16T08:41:48.261Z,102316.75
2019-02-16T08:47:11.527Z,102306.36
2019-02-16T08:52:18.428Z,102302.08
2019-02-16T08:57:34.535Z,102307.44
2019-02-16T09:02:53.526Z,102307.39
2019-02-16T09:08:03.235Z,102300.39
2019-02-16T09:13:19.067Z,102292.47
2019-02-16T09:18:31.802Z,102292.57
2019-02-16T09:23:38.607Z,102289.78
2019-02-16T09:28:48.651Z,102292.84
2019-02-16T09:34:10.634Z,102285.23
2019-02-16T09:39:18.664Z,102285.23
2019-02-16T09:44:25.730Z,102283.87
2019-02-16T09:49:41.644Z,102254.86
2019-02-16T09:55:03.585Z,102252.34
2019-02-16T10:00:23.944Z,102251.41
2019-02-16T10:05:39.882Z,102233.96
2019-02-16T10:10:57.149Z,102222.31
2019-02-16T10:16:18.995Z,102212.32
2019-02-16T10:21:42.693Z,102210.05
2019-02-16T10:26:49.671Z,102204.97
2019-02-16T10:31:57.800Z,102200.65
2019-02-16T10:37:10.346Z,102208.12
2019-02-16T10:42:23.164Z,102196.98
2019-02-16T10:47:33.036Z,102191.33
2019-02-16T10:52:42.386Z,102183.88
2019-02-16T10:57:58.197Z,102185.28
2019-02-16T11:03:05.414Z,102167.45
2019-02-16T11:08:15.359Z,102159.00
2019-02-16T11:13:24.892Z,102164.46
2019-02-16T11:18:34.990Z,102160.83
2019-02-16T11:23:45.454Z,102165.80
2019-02-16T11:28:55.431Z,102164.75
2019-02-16T11:34:02.351Z,102149.84
2019-02-16T11:39:10.900Z,102133.31
2019-02-16T11:44:23.559Z,102130.90
2019-02-16T11:49:50.905Z,102121.20
2019-02-16T11:55:12.756Z,102110.19
2019-02-16T12:00:28.197Z,102115.52
2019-02-16T12:05:35.289Z,102112.76
2019-02-16T12:10:42.038Z,102099.84
2019-02-16T12:15:51.839Z,102102.42
2019-02-16T12:21:04.427Z,102091.37
2019-02-16T12:26:11.389Z,102092.73
2019-02-16T12:31:24.106Z,102073.52
2019-02-16T12:36:31.108Z,102072.05
2019-02-16T12:41:37.870Z,102059.25
2019-02-16T12:46:44.751Z,102064.92
2019-02-16T12:51:51.847Z,102049.14
2019-02-16T12:57:14.034Z,102040.37
2019-02-16T13:02:20.933Z,102030.46
2019-02-16T13:07:27.855Z,102034.69
2019-02-16T13:12:52.858Z,102019.08
2019-02-16T13:18:02.206Z,102010.56
2019-02-16T13:23:27.217Z,101999.25
2019-02-16T13:28:47.637Z,101989.13
2019-02-16T13:33:54.966Z,101990.06
2019-02-16T13:39:02.045Z,101985.58
2019-02-16T13:44:13.412Z,101976.64
2019-02-16T13:49:23.194Z,101967.22
2019-02-16T13:54:33.332Z,101965.56
2019-02-16T13:59:45.997Z,101962.59
2019-02-16T14:05:10.925Z,101949.77
2019-02-16T14:10:18.118Z,101955.87
2019-02-16T14:15:29.550Z,101942.71
2019-02-16T14:20:34.553Z,101939.57
2019-02-16T14:25:44.896Z,101927.59
2019-02-16T14:30:48.334Z,101916.84
2019-02-16T14:35:54.228Z,101891.97
2019-02-16T14:40:59.787Z,101893.14
2019-02-16T14:46:05.259Z,101895.25
2019-02-16T14:51:10.621Z,101896.52
2019-02-16T14:56:15.993Z,101893.84
2019-02-16T15:01:21.586Z,101881.59
2019-02-16T15:06:27.007Z,101871.24
2019-02-16T15:11:32.557Z,101872.38
2019-02-16T15:16:37.776Z,101880.24
2019-02-16T15:21:42.985Z,101875.33
2019-02-16T15:26:48.205Z,101882.79
2019-02-16T15:31:53.385Z,101883.27
2019-02-16T15:36:59.250Z,101871.98
2019-02-16T15:42:04.711Z,101867.25
2019-02-16T15:47:09.961Z,101875.09
2019-02-16T15:52:15.480Z,101878.28
2019-02-16T15:57:20.890Z,101874.50
2019-02-16T16:02:26.145Z,101873.22
2019-02-16T16:07:31.509Z,101867.05
2019-02-16T16:12:38.699Z,101881.05
2019-02-16T16:17:45.606Z,101883.01
2019-02-16T16:22:52.596Z,101884.33
2019-02-16T16:28:02.644Z,101880.48
2019-02-16T16:33:12.331Z,101878.14
2019-02-16T16:38:25.463Z,101884.11
2019-02-16T16:43:49.732Z,101885.68
2019-02-16T16:48:59.184Z,101888.90
2019-02-16T16:54:08.666Z,101884.48
2019-02-16T16:59:27.764Z,101880.47
2019-02-16T17:04:37.429Z,101884.37
2019-02-16T17:09:49.845Z,101873.37
2019-02-16T17:14:59.824Z,101863.95
2019-02-16T17:20:24.530Z,101846.69
2019-02-16T17:25:40.758Z,101841.53
2019-02-16T17:30:50.510Z,101841.62
2019-02-16T17:36:03.286Z,101847.79
2019-02-16T17:41:19.157Z,101849.19
2019-02-16T17:46:29.228Z,101858.11
2019-02-16T17:51:45.230Z,101843.97
2019-02-16T17:57:10.208Z,101835.13
2019-02-16T18:02:20.114Z,101825.43
2019-02-16T18:07:29.971Z,101825.43
2019-02-16T18:12:42.793Z,101851.20
2019-02-16T18:18:06.591Z,101845.70
2019-02-16T18:23:13.580Z,101841.59
2019-02-16T18:28:23.251Z,101843.91
2019-02-16T18:33:45.376Z,101843.91
2019-02-16T18:39:04.192Z,101861.80
2019-02-16T18:44:21.452Z,101839.80
2019-02-16T18:49:37.536Z,101841.16
2019-02-16T18:54:44.437Z,101846.52
2019-02-16T19:00:03.505Z,101852.22
2019-02-16T19:05:20.429Z,101843.38
2019-02-16T19:10:27.227Z,101867.03
2019-02-16T19:15:40.371Z,101865.24
2019-02-16T19:20:50.528Z,101868.94
2019-02-16T19:26:00.189Z,101861.58
2019-02-16T19:31:06.991Z,101842.94
2019-02-16T19:36:13.723Z,101842.94
2019-02-16T19:41:20.562Z,101839.19
2019-02-16T19:46:33.409Z,101836.83
2019-02-16T19:51:56.778Z,101836.83
2019-02-16T19:57:03.606Z,101831.11
2019-02-16T20:02:13.337Z,101831.11
2019-02-16T20:07:29.240Z,101832.61
2019-02-16T20:12:36.069Z,101816.55
2019-02-16T20:17:57.805Z,101825.42
2019-02-16T20:23:07.650Z,101802.94
2019-02-16T20:28:14.555Z,101818.81
2019-02-16T20:33:21.604Z,101818.06
2019-02-16T20:38:43.488Z,101823.41
2019-02-16T20:44:02.682Z,101816.64
2019-02-16T20:49:18.784Z,101818.29
2019-02-16T20:54:31.812Z,101818.29
2019-02-16T20:59:48.025Z,101816.56
2019-02-16T21:05:03.858Z,101819.98
2019-02-16T21:10:14.205Z,101819.98
2019-02-16T21:15:21.373Z,101822.02
2019-02-16T21:20:34.153Z,101822.02
2019-02-16T21:25:41.029Z,101801.75
2019-02-16T21:30:53.763Z,101819.42
2019-02-16T21:36:03.935Z,101825.31
2019-02-16T21:41:19.603Z,101813.06
2019-02-16T21:46:29.184Z,101813.06
2019-02-16T21:51:42.247Z,101817.44
2019-02-16T21:56:51.993Z,101832.72
2019-02-16T22:02:17.015Z,101805.05
2019-02-16T22:07:39.996Z,101825.52
2019-02-16T22:12:49.746Z,101825.52
2019-02-16T22:17:55.006Z,101829.95
2019-02-16T22:23:00.568Z,101820.59
2019-02-16T22:28:05.822Z,101825.42
2019-02-16T22:33:11.326Z,101834.29
2019-02-16T22:38:16.539Z,101830.39
2019-02-16T22:43:21.716Z,101829.95
2019-02-16T22:48:28.911Z,101847.04
2019-02-16T22:53:34.099Z,101844.66
2019-02-16T22:58:39.316Z,101854.72
2019-02-16T23:03:44.702Z,101859.18
2019-02-16T23:08:50.036Z,101874.97
2019-02-16T23:13:55.598Z,101853.14
2019-02-16T23:19:00.819Z,101870.55
2019-02-16T23:24:06.167Z,101870.55
2019-02-16T23:29:11.821Z,101865.95
2019-02-16T23:34:17.284Z,101861.92
2019-02-16T23:39:22.482Z,101865.89
2019-02-16T23:44:27.846Z,101855.79
2019-02-16T23:49:33.416Z,101863.56
2019-02-16T23:54:38.769Z,101847.98
2019-02-16T23:59:45.427Z,101850.16
